Time;durP1;ratioP1;P1;durP2;ratioP2;P2;SDS_P1;SDS_P2;PMS_P1;PMS_P2;Temp;Humidity;BMP_temperature;BMP_pressure;BME280_temperature;BME280_humidity;BME280_pressure;Samples;Min_cycle;Max_cycle;Signal;HPM_P1;HPM_P2
2022/05/02 07:58:53;;;;;;;16.90;15.18;;;;;;;12.15;57.86;101911.91;5302537;27;20371;-75
2022/05/02 08:01:25;;;;;;;18.00;12.93;;;;;;;12.20;57.52;101907.47;5301454;28;20111;-75
2022/05/02 08:03:56;;;;;;;16.13;14.48;;;;;;;12.30;55.98;101905.53;5282868;28;20104;-76
2022/05/02 08:06:54;;;;;;;17.38;14.00;;;;;;;12.39;55.91;101912.22;5281318;28;20032;-77
2022/05/02 08:09:46;;;;;;;17.23;14.05;;;;;;;12.44;54.73;101914.19;5297468;28;20446;-76
2022/05/02 08:12:41;;;;;;;17.60;12.85;;;;;;;12.60;54.55;101904.75;5301995;28;20038;-76
2022/05/02 08:15:24;;;;;;;15.27;13.75;;;;;;;12.78;53.85;101906.13;5301142;28;20056;-76
2022/05/02 08:18:20;;;;;;;13.95;12.52;;;;;;;12.87;53.81;101909.19;5291509;28;20036;-76
2022/05/02 08:21:02;;;;;;;13.20;11.75;;;;;;;12.89;52.31;101901.41;5279863;28;20029;-75
2022/05/02 08:27:19;;;;;;;16.55;13.70;;;;;;;13.04;52.22;101903.34;5280813;28;20032;-78
2022/05/02 08:30:20;;;;;;;36.45;28.13;;;;;;;13.26;52.40;101900.22;5279947;28;20115;-78
2022/05/02 08:33:06;;;;;;;22.35;14.32;;;;;;;13.40;52.46;101908.84;5279991;28;20028;-76
2022/05/02 08:36:08;;;;;;;16.25;11.77;;;;;;;13.48;51.42;101903.53;5297702;28;20115;-76
2022/05/02 08:38:45;;;;;;;13.65;10.95;;;;;;;13.57;50.33;101897.34;5295477;28;20035;-75
2022/05/02 08:41:25;;;;;;;16.20;13.65;;;;;;;13.55;50.14;101905.16;5296973;28;20039;-77
2022/05/02 08:44:21;;;;;;;19.38;13.63;;;;;;;13.70;49.93;101902.31;5280928;28;20029;-73
2022/05/02 08:47:16;;;;;;;13.82;12.40;;;;;;;13.67;49.88;101900.94;5289262;28;20080;-76
2022/05/02 08:50:20;;;;;;;14.02;12.35;;;;;;;13.82;49.90;101897.25;5300316;28;20379;-75
2022/05/02 08:52:57;;;;;;;15.15;12.10;;;;;;;13.86;49.07;101895.56;5298940;28;20395;-75
2022/05/02 08:55:41;;;;;;;14.52;12.63;;;;;;;13.97;49.10;101898.31;5279444;28;20032;-75
2022/05/02 08:59:10;;;;;;;14.55;10.70;;;;;;;14.17;48.68;101900.97;5304427;28;20056;-75
2022/05/02 09:02:05;;;;;;;14.27;11.48;;;;;;;14.19;47.91;101893.16;5235656;28;20527;-75
2022/05/02 09:04:55;;;;;;;13.82;11.55;;;;;;;14.20;47.56;101897.59;5235628;28;20041;-75
2022/05/02 09:07:48;;;;;;;13.82;12.38;;;;;;;14.01;47.32;101886.28;5318837;28;20044;-76
2022/05/02 09:10:33;;;;;;;12.73;11.43;;;;;;;14.05;48.08;101892.13;5300873;28;20115;-76
2022/05/02 09:13:44;;;;;;;13.30;11.63;;;;;;;14.27;47.85;101891.72;5286059;28;20119;-74
2022/05/02 09:16:34;;;;;;;17.40;13.00;;;;;;;14.39;47.69;101889.38;5305166;28;20074;-76
2022/05/02 09:19:49;;;;;;;16.88;14.95;;;;;;;14.63;47.10;101900.69;5306501;28;20095;-74
2022/05/02 09:22:51;;;;;;;11.95;9.95;;;;;;;14.60;45.52;101897.63;5307019;28;20475;-76
2022/05/02 09:25:57;;;;;;;10.63;9.35;;;;;;;14.72;44.45;101887.75;5306724;28;20024;-75
2022/05/02 09:28:36;;;;;;;11.40;8.88;;;;;;;14.78;43.13;101888.56;5301970;28;20029;-76
2022/05/02 09:31:18;;;;;;;13.68;11.82;;;;;;;14.55;44.74;101884.56;5285580;28;20028;-75
2022/05/02 09:34:08;;;;;;;11.93;10.73;;;;;;;14.74;45.77;101879.91;5285715;28;20020;-75
2022/05/02 09:36:54;;;;;;;15.90;10.70;;;;;;;14.87;45.54;101875.63;5303849;28;20024;-76
2022/05/02 09:39:44;;;;;;;;;;;;;;;15.09;44.80;101886.31;5293705;28;20144;-75
2022/05/02 09:42:26;;;;;;;10.70;9.68;;;;;;;15.00;45.06;101882.47;5304696;28;19949;-73
2022/05/02 09:51:58;;;;;;;13.10;10.57;;;;;;;15.21;43.90;101861.59;5285291;28;20033;-75
2022/05/02 09:58:17;;;;;;;11.48;10.38;;;;;;;15.19;43.30;101863.84;5285116;28;20396;-75
2022/05/02 10:01:11;;;;;;;12.68;11.48;;;;;;;15.11;43.65;101860.84;5284943;28;20029;-75
2022/05/02 10:04:12;;;;;;;11.32;10.23;;;;;;;15.29;43.71;101868.50;5285057;28;20051;-74
2022/05/02 10:06:51;;;;;;;10.73;9.57;;;;;;;15.23;43.31;101864.91;5298063;28;20038;-74
2022/05/02 10:10:03;;;;;;;14.15;10.35;;;;;;;15.42;43.00;101858.56;5306531;28;20039;-74
2022/05/02 10:12:47;;;;;;;11.73;10.43;;;;;;;15.57;42.74;101860.31;5305669;28;20036;-75
2022/05/02 10:15:41;;;;;;;12.20;10.93;;;;;;;15.50;42.78;101857.06;5305016;28;20114;-74
2022/05/02 10:18:47;;;;;;;10.82;8.98;;;;;;;15.41;42.70;101860.50;5299242;28;20406;-75
2022/05/02 10:21:32;;;;;;;10.73;8.70;;;;;;;15.67;41.77;101862.97;5283487;28;20025;-74
2022/05/02 10:24:32;;;;;;;12.10;9.52;;;;;;;15.50;41.91;101857.91;5301228;28;20024;-76
2022/05/02 10:27:40;;;;;;;13.40;9.55;;;;;;;15.65;40.46;101865.25;5305439;28;20032;-75
2022/05/02 10:30:20;;;;;;;10.40;9.05;;;;;;;15.61;40.84;101842.66;5305513;28;20499;-74
2022/05/02 10:32:56;;;;;;;13.65;8.93;;;;;;;15.75;41.00;101853.97;5284102;28;20017;-74
2022/05/02 10:35:28;;;;;;;12.63;10.05;;;;;;;15.58;40.60;101848.84;5284110;28;20399;-74
2022/05/02 10:38:01;;;;;;;13.50;11.10;;;;;;;15.82;41.85;101842.41;5284593;28;20037;-77
2022/05/02 10:40:38;;;;;;;20.10;17.98;;;;;;;15.86;42.09;101843.47;5295268;28;20055;-74
2022/05/02 10:43:15;;;;;;;21.98;16.58;;;;;;;16.02;40.91;101847.69;5304624;28;20421;-73
2022/05/02 10:45:48;;;;;;;12.38;10.10;;;;;;;15.97;41.29;101841.34;5304951;28;20043;-73
2022/05/02 10:48:20;;;;;;;10.07;9.07;;;;;;;15.95;42.73;101836.09;5303814;28;20507;-74
2022/05/02 10:51:05;;;;;;;14.82;13.27;;;;;;;16.04;40.72;101839.84;5303992;28;20070;-73
2022/05/02 10:53:58;;;;;;;9.63;8.73;;;;;;;15.96;39.41;101825.72;5288694;28;20426;-73
2022/05/02 10:56:47;;;;;;;24.40;17.48;;;;;;;16.09;40.28;101834.16;5288653;28;20020;-73
2022/05/02 10:59:22;;;;;;;9.82;8.80;;;;;;;16.16;40.42;101824.56;5298976;28;20036;-74
2022/05/02 11:02:06;;;;;;;9.43;8.52;;;;;;;16.26;40.88;101824.41;5287783;28;20028;-71
2022/05/02 11:05:03;;;;;;;10.88;9.05;;;;;;;16.19;39.42;101818.38;5283007;28;20531;-72
2022/05/02 11:07:54;;;;;;;11.35;8.45;;;;;;;16.40;40.02;101825.28;5284229;28;20480;-72
2022/05/02 11:10:29;;;;;;;13.27;10.63;;;;;;;16.37;38.87;101825.91;5301644;28;20035;-72
2022/05/02 11:13:20;;;;;;;10.85;9.48;;;;;;;16.20;39.47;101822.81;5304604;28;20028;-73
2022/05/02 11:16:00;;;;;;;10.95;9.65;;;;;;;16.20;40.02;101812.44;5290450;28;20487;-72
2022/05/02 11:22:01;;;;;;;11.10;9.43;;;;;;;16.53;39.82;101812.47;5284781;28;20522;-72
2022/05/02 11:24:42;;;;;;;10.43;9.38;;;;;;;16.67;39.77;101807.75;5292976;28;20028;-72
2022/05/02 11:27:50;;;;;;;10.27;8.80;;;;;;;16.80;40.20;101806.13;5300450;28;20031;-72
2022/05/02 11:30:27;;;;;;;12.10;9.23;;;;;;;16.67;39.03;101809.72;5302382;28;20101;-72
2022/05/02 11:33:29;;;;;;;10.07;9.07;;;;;;;16.78;39.01;101807.59;5286299;28;20074;-72
2022/05/02 11:36:02;;;;;;;15.18;13.55;;;;;;;16.85;38.51;101799.63;5283218;28;20387;-72
2022/05/02 11:38:45;;;;;;;11.18;8.80;;;;;;;16.80;38.35;101789.34;5283410;28;20032;-72
2022/05/02 11:41:18;;;;;;;9.95;8.95;;;;;;;16.82;37.88;101792.66;5292565;28;20355;-72
2022/05/02 11:44:18;;;;;;;13.73;8.57;;;;;;;16.92;37.67;101791.63;5293989;28;20070;-71
2022/05/02 11:47:00;;;;;;;9.77;8.88;;;;;;;16.79;38.33;101796.06;5289070;28;20024;-73
2022/05/02 11:49:47;;;;;;;9.77;8.77;;;;;;;16.96;38.47;101784.25;5297212;28;20036;-74
2022/05/02 11:52:33;;;;;;;11.30;10.30;;;;;;;16.97;38.50;101788.72;5281810;28;20081;-74
2022/05/02 11:55:07;;;;;;;10.10;8.90;;;;;;;17.14;38.09;101790.91;5296121;28;20028;-74
2022/05/02 11:57:42;;;;;;;10.40;9.15;;;;;;;17.41;38.42;101792.03;5304025;28;20043;-73
2022/05/02 12:00:15;;;;;;;12.90;9.07;;;;;;;17.35;38.24;101794.94;5302519;28;20028;-74
2022/05/02 12:02:52;;;;;;;11.32;10.13;;;;;;;17.42;37.35;101782.50;5304051;28;20112;-75
2022/05/02 12:05:40;;;;;;;10.13;9.07;;;;;;;17.50;37.35;101778.94;5291141;28;20024;-76
2022/05/02 12:08:44;;;;;;;10.80;9.27;;;;;;;17.50;37.31;101776.13;5283960;28;20033;-75
2022/05/02 12:11:15;;;;;;;11.10;9.48;;;;;;;17.58;36.48;101787.44;5298362;28;20024;-75
2022/05/02 12:13:47;;;;;;;12.05;10.00;;;;;;;17.68;36.38;101777.97;5292808;28;20051;-75
2022/05/02 12:16:27;;;;;;;11.38;10.35;;;;;;;17.56;36.91;101783.28;5302579;28;20028;-75
2022/05/02 12:19:04;;;;;;;11.35;10.25;;;;;;;17.37;36.60;101767.44;5300477;28;20383;-76
2022/05/02 12:21:46;;;;;;;9.90;9.00;;;;;;;17.76;36.83;101776.38;5292055;28;20067;-76
2022/05/02 12:24:29;;;;;;;10.38;9.40;;;;;;;17.78;36.97;101776.91;5299896;28;20410;-74
2022/05/02 12:27:06;;;;;;;10.55;9.20;;;;;;;17.89;36.11;101769.94;5281641;28;20055;-75
2022/05/02 12:29:42;;;;;;;11.65;9.48;;;;;;;18.03;36.04;101778.31;5296456;28;20024;-75
2022/05/02 12:32:15;;;;;;;11.90;9.93;;;;;;;18.05;35.66;101776.03;5298903;28;20479;-76
2022/05/02 12:34:52;;;;;;;11.88;8.65;;;;;;;17.93;35.20;101775.75;5295882;28;20045;-75
2022/05/02 12:37:32;;;;;;;19.60;17.90;;;;;;;18.21;35.28;101782.91;5289473;28;20126;-77
2022/05/02 12:40:08;;;;;;;16.60;12.80;;;;;;;18.33;34.71;101778.69;5291691;28;20099;-76
2022/05/02 12:42:44;;;;;;;15.73;14.20;;;;;;;18.10;34.86;101789.94;5299317;28;20105;-77
2022/05/02 12:45:23;;;;;;;12.27;10.98;;;;;;;18.05;35.33;101773.22;5285951;28;20040;-77
2022/05/02 12:48:01;;;;;;;10.38;9.30;;;;;;;18.38;35.01;101775.75;5295948;28;20107;-75
2022/05/02 12:50:48;;;;;;;12.07;8.52;;;;;;;18.44;35.11;101763.25;5307366;28;20133;-76
2022/05/02 12:56:14;;;;;;;12.70;11.05;;;;;;;18.54;34.12;101767.78;5295364;28;20467;-75
2022/05/02 13:01:45;;;;;;;10.57;9.50;;;;;;;18.61;34.38;101763.34;5286171;28;20475;-75
2022/05/02 13:04:22;;;;;;;10.50;9.40;;;;;;;18.78;34.43;101753.38;5285552;28;20080;-74
2022/05/02 13:06:58;;;;;;;10.73;9.70;;;;;;;18.85;34.48;101750.94;5296471;28;20042;-75
2022/05/02 13:09:37;;;;;;;10.73;9.30;;;;;;;18.89;33.99;101740.69;5300085;28;20039;-75
2022/05/02 13:12:11;;;;;;;14.07;9.75;;;;;;;18.95;33.86;101750.63;5305601;28;20058;-75
2022/05/02 13:14:46;;;;;;;13.03;11.33;;;;;;;18.82;33.11;101735.53;5286191;28;20025;-75
2022/05/02 13:17:22;;;;;;;11.77;10.23;;;;;;;18.62;33.96;101736.91;5285074;28;20336;-76
2022/05/02 13:19:54;;;;;;;10.05;9.15;;;;;;;18.87;34.28;101737.38;5303664;28;20035;-77
2022/05/02 13:22:25;;;;;;;11.60;10.50;;;;;;;18.82;34.09;101735.53;5306650;28;20060;-76
2022/05/02 13:24:57;;;;;;;11.43;9.85;;;;;;;18.93;33.82;101736.06;5292064;28;20119;-72
2022/05/02 13:27:37;;;;;;;13.00;11.57;;;;;;;19.02;33.67;101744.53;5287480;28;20456;-73
2022/05/02 13:30:09;;;;;;;12.18;10.98;;;;;;;18.50;34.10;101739.47;5300577;28;20032;-74
2022/05/02 13:32:55;;;;;;;11.80;10.57;;;;;;;18.86;34.39;101722.47;5288634;28;20031;-73
2022/05/02 13:35:33;;;;;;;13.25;9.80;;;;;;;19.08;33.99;101721.56;5306794;28;20064;-73
2022/05/02 13:38:10;;;;;;;12.55;9.60;;;;;;;19.22;33.70;101726.25;5287705;28;20043;-73
2022/05/02 13:41:18;;;;;;;15.48;10.65;;;;;;;19.52;33.42;101710.41;5285242;28;20025;-73
2022/05/02 13:44:03;;;;;;;11.70;9.77;;;;;;;19.53;33.18;101721.34;5280112;28;20051;-73
2022/05/02 13:46:56;;;;;;;13.82;9.63;;;;;;;19.69;33.39;101701.19;5301730;28;20029;-73
2022/05/02 13:49:34;;;;;;;11.68;10.48;;;;;;;19.84;33.01;101713.91;5285670;28;20051;-73
2022/05/02 13:52:22;;;;;;;11.23;9.75;;;;;;;19.91;32.45;101711.44;5284372;28;20034;-70
2022/05/02 13:54:54;;;;;;;10.05;9.13;;;;;;;19.89;32.02;101699.66;5294704;28;20016;-69
2022/05/02 13:57:45;;;;;;;11.40;9.70;;;;;;;19.62;32.32;101712.06;5305491;28;20055;-71
2022/05/02 14:03:18;;;;;;;;;;;;;;;19.96;31.29;101705.63;5285666;28;20036;-76
2022/05/02 14:08:42;;;;;;;11.27;9.35;;;;;;;19.70;32.25;101698.03;5305461;28;20032;-75
2022/05/02 14:11:18;;;;;;;13.85;10.38;;;;;;;19.44;31.83;101695.19;5305369;28;20020;-77
2022/05/02 14:14:04;;;;;;;10.63;8.98;;;;;;;19.85;31.95;101693.88;5294710;28;20028;-75
2022/05/02 14:16:38;;;;;;;13.25;10.77;;;;;;;19.86;31.82;101695.53;5292403;28;20036;-77
2022/05/02 14:19:09;;;;;;;10.63;9.63;;;;;;;20.30;32.10;101690.66;5293198;28;20028;-76
2022/05/02 14:21:45;;;;;;;17.23;11.80;;;;;;;20.08;31.13;101688.06;5297743;28;20081;-75
2022/05/02 14:24:17;;;;;;;11.75;10.55;;;;;;;20.24;31.87;101683.53;5305042;28;20035;-73
2022/05/02 14:26:58;;;;;;;12.38;9.85;;;;;;;20.08;31.26;101680.44;5305038;28;20020;-74
2022/05/02 14:29:30;;;;;;;10.88;9.80;;;;;;;20.05;31.41;101688.75;5303752;28;20377;-76
2022/05/02 14:32:04;;;;;;;11.00;9.77;;;;;;;20.11;31.34;101681.75;5305276;28;20066;-76
2022/05/02 14:34:41;;;;;;;11.30;10.20;;;;;;;19.95;31.10;101687.91;5303654;28;20028;-75
2022/05/02 14:37:17;;;;;;;13.40;9.80;;;;;;;19.87;31.08;101688.75;5303861;28;20439;-77
2022/05/02 14:39:49;;;;;;;10.93;9.73;;;;;;;20.12;31.45;101686.22;5284119;28;20066;-74
2022/05/02 14:42:21;;;;;;;9.95;8.95;;;;;;;20.07;31.09;101683.59;5283498;28;20468;-75
2022/05/02 14:44:53;;;;;;;11.38;9.90;;;;;;;19.94;31.21;101680.66;5284349;28;20020;-77
2022/05/02 14:47:26;;;;;;;10.90;9.77;;;;;;;19.93;31.83;101673.34;5292312;28;20069;-77
2022/05/02 14:49:57;;;;;;;11.15;9.02;;;;;;;20.05;31.47;101675.47;5303046;28;20036;-77
2022/05/02 14:52:34;;;;;;;10.88;9.10;;;;;;;20.03;32.20;101669.34;5293272;28;20059;-77
2022/05/02 14:55:10;;;;;;;12.02;10.27;;;;;;;19.70;31.79;101674.69;5290974;28;20028;-76
2022/05/02 14:57:45;;;;;;;13.38;10.38;;;;;;;19.77;32.37;101675.84;5298917;28;20131;-75
2022/05/02 15:00:20;;;;;;;11.25;10.15;;;;;;;19.77;32.30;101675.03;5283739;28;20028;-72
2022/05/02 15:02:54;;;;;;;11.57;9.63;;;;;;;19.52;32.46;101665.41;5286815;28;20051;-77
2022/05/02 15:05:29;;;;;;;15.57;9.47;;;;;;;19.53;32.23;101669.84;5296338;28;20024;-77
2022/05/02 15:08:04;;;;;;;10.88;9.77;;;;;;;19.38;32.71;101662.75;5290006;28;20789;-74
2022/05/02 15:10:52;;;;;;;11.85;10.27;;;;;;;19.54;32.58;101669.53;5299629;28;20123;-75
2022/05/02 15:13:45;;;;;;;11.68;10.18;;;;;;;19.42;32.56;101662.91;5316937;28;20118;-75
2022/05/02 15:16:24;;;;;;;14.68;10.35;;;;;;;19.42;32.76;101652.47;5320532;28;20028;-76
2022/05/02 15:22:16;;;;;;;14.82;10.65;;;;;;;19.54;32.21;101644.22;5304832;28;20468;-75
2022/05/02 15:25:06;;;;;;;11.57;10.38;;;;;;;19.16;32.56;101643.22;5294050;28;20024;-75
2022/05/02 15:36:39;;;;;;;19.38;17.40;;;;;;;19.31;32.17;101640.75;5304299;28;20032;-76
2022/05/02 15:39:24;;;;;;;11.85;10.70;;;;;;;19.27;31.99;101642.53;5304059;28;20028;-76
2022/05/02 15:42:13;;;;;;;10.80;9.55;;;;;;;19.30;32.30;101635.44;5301120;28;20027;-76
2022/05/02 15:44:50;;;;;;;12.25;11.05;;;;;;;19.13;32.11;101644.69;5288596;28;20024;-75
2022/05/02 15:47:23;;;;;;;11.88;9.27;;;;;;;19.28;32.00;101637.78;5295528;28;20361;-75
2022/05/02 15:49:57;;;;;;;11.18;10.07;;;;;;;19.17;32.17;101639.22;5283230;28;20104;-76
2022/05/02 15:52:29;;;;;;;11.90;9.98;;;;;;;19.14;31.92;101635.09;5282022;28;20072;-76
2022/05/02 15:55:07;;;;;;;10.30;9.20;;;;;;;19.11;32.32;101633.75;5286431;28;20491;-76
2022/05/02 15:57:43;;;;;;;10.88;8.60;;;;;;;19.21;32.14;101631.81;5297973;28;20048;-74
2022/05/02 16:00:25;;;;;;;;;;;;;;;19.33;32.43;101626.34;5283406;28;20033;-75
2022/05/02 16:03:03;;;;;;;11.27;10.18;;;;;;;19.16;32.02;101620.72;5286949;28;19919;-75
2022/05/02 16:05:37;;;;;;;10.77;9.77;;;;;;;19.28;31.39;101623.72;5281750;28;20072;-73
2022/05/02 16:11:05;;;;;;;12.63;10.25;;;;;;;19.07;32.12;101624.34;5311646;28;20036;-74
2022/05/02 16:13:39;;;;;;;11.07;8.85;;;;;;;19.16;31.49;101627.16;5293670;28;20493;-74
2022/05/02 16:16:22;;;;;;;14.18;10.00;;;;;;;19.24;31.53;101629.16;5297722;28;20383;-75
2022/05/02 16:18:55;;;;;;;9.93;8.40;;;;;;;19.32;32.35;101624.69;5287106;28;20029;-76
2022/05/02 16:21:27;;;;;;;11.23;8.85;;;;;;;19.09;31.35;101627.63;5297916;28;20470;-82
2022/05/02 16:24:02;;;;;;;11.95;10.68;;;;;;;19.43;31.32;101628.00;5296491;28;20024;-84
2022/05/02 16:26:33;;;;;;;39.67;35.53;;;;;;;19.42;31.37;101618.72;5295166;28;20041;-85
2022/05/02 16:29:14;;;;;;;12.20;9.82;;;;;;;19.43;31.93;101626.03;5304143;28;20045;-85
2022/05/02 16:31:46;;;;;;;11.65;9.93;;;;;;;19.61;30.93;101621.22;5296942;28;20064;-84
2022/05/02 16:34:18;;;;;;;10.43;9.38;;;;;;;19.46;30.70;101625.34;5311808;28;20048;-85
2022/05/02 16:36:57;;;;;;;10.77;8.43;;;;;;;19.60;31.02;101615.91;5304936;28;20459;-84
2022/05/02 16:39:28;;;;;;;14.05;10.95;;;;;;;19.68;30.88;101615.91;5287953;28;20017;-84
2022/05/02 16:42:00;;;;;;;9.52;8.63;;;;;;;19.83;30.77;101614.56;5316982;28;20077;-85
2022/05/02 16:44:31;;;;;;;11.30;8.48;;;;;;;19.84;30.60;101619.06;5295319;28;20093;-80
2022/05/02 16:47:05;;;;;;;10.88;8.10;;;;;;;19.75;30.09;101618.25;5297468;28;20097;-85
2022/05/02 16:49:43;;;;;;;11.43;8.45;;;;;;;19.90;30.21;101617.72;5300874;28;20035;-85
2022/05/02 16:52:24;;;;;;;9.07;8.18;;;;;;;19.92;29.95;101621.03;5305684;28;20024;-84
2022/05/02 16:54:56;;;;;;;10.20;9.20;;;;;;;19.62;30.09;101611.59;5268173;22;20398;-85
2022/05/02 16:58:13;;;;;;;11.60;10.40;;;;;;;19.93;30.28;101619.84;5205658;28;20042;-85
2022/05/02 17:00:55;;;;;;;9.85;7.30;;;;;;;19.76;31.30;101617.91;5230560;22;20149;-81
2022/05/02 17:03:32;;;;;;;8.15;7.07;;;;;;;19.96;31.57;101615.53;5245884;28;20389;-85
2022/05/02 17:06:05;;;;;;;12.90;9.00;;;;;;;19.84;31.73;101618.22;5246193;28;20057;-83
2022/05/02 17:08:38;;;;;;;8.50;7.70;;;;;;;19.98;31.98;101616.03;5230070;28;20032;-84
2022/05/02 17:11:09;;;;;;;11.32;7.60;;;;;;;20.05;31.99;101609.91;5234534;28;20041;-83
2022/05/02 17:13:41;;;;;;;11.73;7.90;;;;;;;19.82;31.55;101612.13;5245502;28;20017;-84
2022/05/02 17:16:22;;;;;;;9.00;7.53;;;;;;;19.63;31.79;101618.06;5245248;28;20030;-84
2022/05/02 17:19:08;;;;;;;9.25;7.55;;;;;;;19.72;32.41;101616.09;5246402;28;20037;-83
2022/05/02 17:22:03;;;;;;;9.88;7.55;;;;;;;19.80;32.10;101618.06;5245633;28;20057;-84
2022/05/02 17:24:47;;;;;;;11.70;8.13;;;;;;;19.62;32.29;101616.41;5246079;28;20025;-83
2022/05/02 17:27:23;;;;;;;8.70;7.80;;;;;;;19.69;32.30;101616.78;5246869;28;20029;-84
